sensor_id;sensor_type;location;lat;lon;timestamp;temperature;humidity
12025;DHT22;6073;53.230;10.444;2023-04-15T00:00:14;7.40;99.90
12025;DHT22;6073;53.230;10.444;2023-04-15T00:02:40;7.40;99.90
12025;DHT22;6073;53.230;10.444;2023-04-15T00:05:06;7.40;99.90
12025;DHT22;6073;53.230;10.444;2023-04-15T00:07:32;7.30;99.90
12025;DHT22;6073;53.230;10.444;2023-04-15T00:09:57;7.30;99.90
12025;DHT22;6073;53.230;10.444;2023-04-15T00:12:24;7.40;99.90
12025;DHT22;6073;53.230;10.444;2023-04-15T00:14:50;7.40;99.90
12025;DHT22;6073;53.230;10.444;2023-04-15T00:17:16;7.40;99.90
12025;DHT22;6073;53.230;10.444;2023-04-15T00:19:42;7.40;99.90
12025;DHT22;6073;53.230;10.444;2023-04-15T00:22:09;7.40;99.90
12025;DHT22;6073;53.230;10.444;2023-04-15T00:24:34;7.40;99.90
12025;DHT22;6073;53.230;10.444;2023-04-15T00:27:00;7.40;99.90
12025;DHT22;6073;53.230;10.444;2023-04-15T00:29:25;7.40;99.90
12025;DHT22;6073;53.230;10.444;2023-04-15T00:31:51;7.40;99.90
12025;DHT22;6073;53.230;10.444;2023-04-15T00:34:16;7.40;99.90
12025;DHT22;6073;53.230;10.444;2023-04-15T00:36:43;7.40;99.90
12025;DHT22;6073;53.230;10.444;2023-04-15T00:39:09;7.30;99.90
12025;DHT22;6073;53.230;10.444;2023-04-15T00:41:34;7.30;99.90
12025;DHT22;6073;53.230;10.444;2023-04-15T00:44:04;7.30;99.90
12025;DHT22;6073;53.230;10.444;2023-04-15T00:46:30;7.30;99.90
12025;DHT22;6073;53.230;10.444;2023-04-15T00:48:55;7.30;99.90
12025;DHT22;6073;53.230;10.444;2023-04-15T00:51:21;7.30;99.90
12025;DHT22;6073;53.230;10.444;2023-04-15T00:53:47;7.30;99.90
12025;DHT22;6073;53.230;10.444;2023-04-15T00:56:12;7.20;99.90
12025;DHT22;6073;53.230;10.444;2023-04-15T00:58:38;7.30;99.90
12025;DHT22;6073;53.230;10.444;2023-04-15T01:01:04;7.30;99.90
12025;DHT22;6073;53.230;10.444;2023-04-15T01:03:30;7.30;99.90
12025;DHT22;6073;53.230;10.444;2023-04-15T01:05:55;7.20;99.90
12025;DHT22;6073;53.230;10.444;2023-04-15T01:08:30;7.20;99.90
12025;DHT22;6073;53.230;10.444;2023-04-15T01:10:56;7.20;99.90
12025;DHT22;6073;53.230;10.444;2023-04-15T01:13:23;7.20;99.90
12025;DHT22;6073;53.230;10.444;2023-04-15T01:15:49;7.20;99.90
12025;DHT22;6073;53.230;10.444;2023-04-15T01:18:16;7.20;99.90
12025;DHT22;6073;53.230;10.444;2023-04-15T01:20:42;7.20;99.90
12025;DHT22;6073;53.230;10.444;2023-04-15T01:23:07;7.20;99.90
12025;DHT22;6073;53.230;10.444;2023-04-15T01:25:34;7.20;99.90
12025;DHT22;6073;53.230;10.444;2023-04-15T01:27:59;7.20;99.90
12025;DHT22;6073;53.230;10.444;2023-04-15T01:30:25;7.20;99.90
12025;DHT22;6073;53.230;10.444;2023-04-15T01:32:52;7.20;99.90
12025;DHT22;6073;53.230;10.444;2023-04-15T01:35:17;7.20;99.90
12025;DHT22;6073;53.230;10.444;2023-04-15T01:37:44;7.20;99.90
12025;DHT22;6073;53.230;10.444;2023-04-15T01:40:09;7.20;99.90
12025;DHT22;6073;53.230;10.444;2023-04-15T01:42:35;7.10;99.90
12025;DHT22;6073;53.230;10.444;2023-04-15T01:45:02;7.10;99.90
12025;DHT22;6073;53.230;10.444;2023-04-15T01:47:27;7.20;99.90
12025;DHT22;6073;53.230;10.444;2023-04-15T01:49:53;7.20;99.90
12025;DHT22;6073;53.230;10.444;2023-04-15T01:52:18;7.20;99.90
12025;DHT22;6073;53.230;10.444;2023-04-15T01:54:44;7.20;99.90
12025;DHT22;6073;53.230;10.444;2023-04-15T01:57:10;7.20;99.90
12025;DHT22;6073;53.230;10.444;2023-04-15T01:59:35;7.20;99.90
12025;DHT22;6073;53.230;10.444;2023-04-15T02:02:01;7.20;99.90
12025;DHT22;6073;53.230;10.444;2023-04-15T02:04:27;7.20;99.90
12025;DHT22;6073;53.230;10.444;2023-04-15T02:06:53;7.20;99.90
12025;DHT22;6073;53.230;10.444;2023-04-15T02:09:18;7.20;99.90
12025;DHT22;6073;53.230;10.444;2023-04-15T02:11:44;7.20;99.90
12025;DHT22;6073;53.230;10.444;2023-04-15T02:14:10;7.20;99.90
12025;DHT22;6073;53.230;10.444;2023-04-15T02:16:35;7.20;99.90
12025;DHT22;6073;53.230;10.444;2023-04-15T02:19:01;7.20;99.90
12025;DHT22;6073;53.230;10.444;2023-04-15T02:21:27;7.20;99.90
12025;DHT22;6073;53.230;10.444;2023-04-15T02:23:53;7.20;99.90
12025;DHT22;6073;53.230;10.444;2023-04-15T02:26:19;7.20;99.90
12025;DHT22;6073;53.230;10.444;2023-04-15T02:28:45;7.20;99.90
12025;DHT22;6073;53.230;10.444;2023-04-15T02:31:11;7.20;99.90
12025;DHT22;6073;53.230;10.444;2023-04-15T02:33:37;7.20;99.90
12025;DHT22;6073;53.230;10.444;2023-04-15T02:36:03;7.20;99.90
12025;DHT22;6073;53.230;10.444;2023-04-15T02:38:28;7.20;99.90
12025;DHT22;6073;53.230;10.444;2023-04-15T02:40:55;7.20;99.90
12025;DHT22;6073;53.230;10.444;2023-04-15T02:43:21;7.20;99.90
12025;DHT22;6073;53.230;10.444;2023-04-15T02:45:47;7.20;99.90
12025;DHT22;6073;53.230;10.444;2023-04-15T02:48:12;7.20;99.90
12025;DHT22;6073;53.230;10.444;2023-04-15T02:50:38;7.20;99.90
12025;DHT22;6073;53.230;10.444;2023-04-15T02:53:05;7.20;99.90
12025;DHT22;6073;53.230;10.444;2023-04-15T02:55:30;7.20;99.90
12025;DHT22;6073;53.230;10.444;2023-04-15T02:57:56;7.20;99.90
12025;DHT22;6073;53.230;10.444;2023-04-15T03:00:24;7.20;99.90
12025;DHT22;6073;53.230;10.444;2023-04-15T03:02:50;7.20;99.90
12025;DHT22;6073;53.230;10.444;2023-04-15T03:05:20;7.20;99.90
12025;DHT22;6073;53.230;10.444;2023-04-15T03:07:47;7.20;99.90
12025;DHT22;6073;53.230;10.444;2023-04-15T03:10:13;7.20;99.90
12025;DHT22;6073;53.230;10.444;2023-04-15T03:12:38;7.20;99.90
12025;DHT22;6073;53.230;10.444;2023-04-15T03:15:05;7.30;99.90
12025;DHT22;6073;53.230;10.444;2023-04-15T03:17:31;7.30;99.90
12025;DHT22;6073;53.230;10.444;2023-04-15T03:19:56;7.30;99.90
12025;DHT22;6073;53.230;10.444;2023-04-15T03:22:22;7.30;99.90
12025;DHT22;6073;53.230;10.444;2023-04-15T03:24:47;7.30;99.90
12025;DHT22;6073;53.230;10.444;2023-04-15T03:27:13;7.30;99.90
12025;DHT22;6073;53.230;10.444;2023-04-15T03:29:38;7.30;99.90
12025;DHT22;6073;53.230;10.444;2023-04-15T03:32:04;7.30;99.90
12025;DHT22;6073;53.230;10.444;2023-04-15T03:34:30;7.30;99.90
12025;DHT22;6073;53.230;10.444;2023-04-15T03:36:55;7.30;99.90
12025;DHT22;6073;53.230;10.444;2023-04-15T03:39:21;7.30;99.90
12025;DHT22;6073;53.230;10.444;2023-04-15T03:41:47;7.30;99.90
12025;DHT22;6073;53.230;10.444;2023-04-15T03:44:12;7.30;99.90
12025;DHT22;6073;53.230;10.444;2023-04-15T03:46:38;7.30;99.90
12025;DHT22;6073;53.230;10.444;2023-04-15T03:49:05;7.30;99.90
12025;DHT22;6073;53.230;10.444;2023-04-15T03:51:31;7.30;99.90
12025;DHT22;6073;53.230;10.444;2023-04-15T03:53:57;7.30;99.90
12025;DHT22;6073;53.230;10.444;2023-04-15T03:56:23;7.30;99.90
12025;DHT22;6073;53.230;10.444;2023-04-15T03:58:49;7.30;99.90
12025;DHT22;6073;53.230;10.444;2023-04-15T04:01:14;7.40;99.90
12025;DHT22;6073;53.230;10.444;2023-04-15T04:03:40;7.40;99.90
12025;DHT22;6073;53.230;10.444;2023-04-15T04:06:06;7.40;99.90
12025;DHT22;6073;53.230;10.444;2023-04-15T04:08:32;7.40;99.90
12025;DHT22;6073;53.230;10.444;2023-04-15T04:10:58;7.40;99.90
12025;DHT22;6073;53.230;10.444;2023-04-15T04:13:23;7.50;99.90
12025;DHT22;6073;53.230;10.444;2023-04-15T04:15:49;7.50;99.90
12025;DHT22;6073;53.230;10.444;2023-04-15T04:18:14;7.40;99.90
12025;DHT22;6073;53.230;10.444;2023-04-15T04:20:40;7.50;99.90
12025;DHT22;6073;53.230;10.444;2023-04-15T04:23:06;7.50;99.90
12025;DHT22;6073;53.230;10.444;2023-04-15T04:25:31;7.50;99.90
12025;DHT22;6073;53.230;10.444;2023-04-15T04:27:58;7.50;99.90
12025;DHT22;6073;53.230;10.444;2023-04-15T04:30:23;7.50;99.90
12025;DHT22;6073;53.230;10.444;2023-04-15T04:32:49;7.40;99.90
12025;DHT22;6073;53.230;10.444;2023-04-15T04:35:15;7.50;99.90
12025;DHT22;6073;53.230;10.444;2023-04-15T04:37:41;7.50;99.90
12025;DHT22;6073;53.230;10.444;2023-04-15T04:40:07;7.50;99.90
12025;DHT22;6073;53.230;10.444;2023-04-15T04:42:33;7.50;99.90
12025;DHT22;6073;53.230;10.444;2023-04-15T04:44:59;7.50;99.90
12025;DHT22;6073;53.230;10.444;2023-04-15T04:47:24;7.50;99.90
12025;DHT22;6073;53.230;10.444;2023-04-15T04:49:50;7.50;99.90
12025;DHT22;6073;53.230;10.444;2023-04-15T04:52:16;7.50;99.90
12025;DHT22;6073;53.230;10.444;2023-04-15T04:54:41;7.50;99.90
12025;DHT22;6073;53.230;10.444;2023-04-15T04:57:07;7.60;99.90
12025;DHT22;6073;53.230;10.444;2023-04-15T04:59:32;7.60;99.90
12025;DHT22;6073;53.230;10.444;2023-04-15T05:01:58;7.60;99.90
12025;DHT22;6073;53.230;10.444;2023-04-15T05:04:24;7.60;99.90
12025;DHT22;6073;53.230;10.444;2023-04-15T05:06:50;7.60;99.90
12025;DHT22;6073;53.230;10.444;2023-04-15T05:09:16;7.60;99.90
12025;DHT22;6073;53.230;10.444;2023-04-15T05:11:41;7.60;99.90
12025;DHT22;6073;53.230;10.444;2023-04-15T05:14:07;7.60;99.90
12025;DHT22;6073;53.230;10.444;2023-04-15T05:16:32;7.60;99.90
12025;DHT22;6073;53.230;10.444;2023-04-15T05:18:58;7.60;99.90
12025;DHT22;6073;53.230;10.444;2023-04-15T05:21:23;7.60;99.90
12025;DHT22;6073;53.230;10.444;2023-04-15T05:23:50;7.60;99.90
12025;DHT22;6073;53.230;10.444;2023-04-15T05:26:15;7.60;99.90
12025;DHT22;6073;53.230;10.444;2023-04-15T05:28:41;7.60;99.90
12025;DHT22;6073;53.230;10.444;2023-04-15T05:31:07;7.60;99.90
12025;DHT22;6073;53.230;10.444;2023-04-15T05:33:33;7.60;99.90
12025;DHT22;6073;53.230;10.444;2023-04-15T05:35:58;7.60;99.90
12025;DHT22;6073;53.230;10.444;2023-04-15T05:38:24;7.70;99.90
12025;DHT22;6073;53.230;10.444;2023-04-15T05:40:49;7.70;99.90
12025;DHT22;6073;53.230;10.444;2023-04-15T05:43:15;7.70;99.90
12025;DHT22;6073;53.230;10.444;2023-04-15T05:45:40;7.70;99.90
12025;DHT22;6073;53.230;10.444;2023-04-15T05:48:06;7.70;99.90
12025;DHT22;6073;53.230;10.444;2023-04-15T05:50:31;7.70;99.90
12025;DHT22;6073;53.230;10.444;2023-04-15T05:52:57;7.70;99.90
12025;DHT22;6073;53.230;10.444;2023-04-15T05:55:22;7.70;99.90
12025;DHT22;6073;53.230;10.444;2023-04-15T05:57:48;7.80;99.90
12025;DHT22;6073;53.230;10.444;2023-04-15T06:00:14;7.80;99.90
12025;DHT22;6073;53.230;10.444;2023-04-15T06:02:39;7.80;99.90
12025;DHT22;6073;53.230;10.444;2023-04-15T06:05:06;7.90;99.90
12025;DHT22;6073;53.230;10.444;2023-04-15T06:07:36;7.90;99.90
12025;DHT22;6073;53.230;10.444;2023-04-15T06:10:02;7.80;99.90
12025;DHT22;6073;53.230;10.444;2023-04-15T06:12:28;7.80;99.90
12025;DHT22;6073;53.230;10.444;2023-04-15T06:14:54;7.90;99.90
12025;DHT22;6073;53.230;10.444;2023-04-15T06:17:19;7.90;99.90
12025;DHT22;6073;53.230;10.444;2023-04-15T06:19:45;7.90;99.90
12025;DHT22;6073;53.230;10.444;2023-04-15T06:22:11;7.90;99.90
12025;DHT22;6073;53.230;10.444;2023-04-15T06:24:36;7.90;99.90
12025;DHT22;6073;53.230;10.444;2023-04-15T06:27:02;7.90;99.90
12025;DHT22;6073;53.230;10.444;2023-04-15T06:29:27;7.90;99.90
12025;DHT22;6073;53.230;10.444;2023-04-15T06:31:53;7.80;99.90
12025;DHT22;6073;53.230;10.444;2023-04-15T06:34:20;7.90;99.90
12025;DHT22;6073;53.230;10.444;2023-04-15T06:36:46;7.90;99.90
12025;DHT22;6073;53.230;10.444;2023-04-15T06:39:11;7.90;99.90
12025;DHT22;6073;53.230;10.444;2023-04-15T06:41:37;7.90;99.90
12025;DHT22;6073;53.230;10.444;2023-04-15T06:44:02;7.90;99.90
12025;DHT22;6073;53.230;10.444;2023-04-15T06:46:28;7.90;99.90
12025;DHT22;6073;53.230;10.444;2023-04-15T06:48:53;7.90;99.90
12025;DHT22;6073;53.230;10.444;2023-04-15T06:51:19;7.90;99.90
12025;DHT22;6073;53.230;10.444;2023-04-15T06:53:45;7.90;99.90
12025;DHT22;6073;53.230;10.444;2023-04-15T06:56:10;7.90;99.90
12025;DHT22;6073;53.230;10.444;2023-04-15T06:58:36;7.90;99.90
12025;DHT22;6073;53.230;10.444;2023-04-15T07:01:01;8.00;99.90
12025;DHT22;6073;53.230;10.444;2023-04-15T07:03:27;8.00;99.90
12025;DHT22;6073;53.230;10.444;2023-04-15T07:05:53;8.00;99.90
12025;DHT22;6073;53.230;10.444;2023-04-15T07:08:19;8.00;99.90
12025;DHT22;6073;53.230;10.444;2023-04-15T07:10:45;8.00;99.90
12025;DHT22;6073;53.230;10.444;2023-04-15T07:13:11;8.10;99.90
12025;DHT22;6073;53.230;10.444;2023-04-15T07:15:37;8.10;99.90
12025;DHT22;6073;53.230;10.444;2023-04-15T07:18:02;8.10;99.90
12025;DHT22;6073;53.230;10.444;2023-04-15T07:20:28;8.20;99.90
12025;DHT22;6073;53.230;10.444;2023-04-15T07:22:54;8.30;99.90
12025;DHT22;6073;53.230;10.444;2023-04-15T07:25:19;8.30;99.90
12025;DHT22;6073;53.230;10.444;2023-04-15T07:27:45;8.40;99.90
12025;DHT22;6073;53.230;10.444;2023-04-15T07:30:11;8.40;99.90
12025;DHT22;6073;53.230;10.444;2023-04-15T07:32:37;8.40;99.90
12025;DHT22;6073;53.230;10.444;2023-04-15T07:35:03;8.50;99.90
12025;DHT22;6073;53.230;10.444;2023-04-15T07:37:28;8.50;99.90
12025;DHT22;6073;53.230;10.444;2023-04-15T07:39:54;8.60;99.90
12025;DHT22;6073;53.230;10.444;2023-04-15T07:42:20;8.60;99.90
12025;DHT22;6073;53.230;10.444;2023-04-15T07:44:46;8.60;99.90
12025;DHT22;6073;53.230;10.444;2023-04-15T07:47:11;8.60;99.90
12025;DHT22;6073;53.230;10.444;2023-04-15T07:49:37;8.50;99.90
12025;DHT22;6073;53.230;10.444;2023-04-15T07:52:03;8.50;99.90
12025;DHT22;6073;53.230;10.444;2023-04-15T07:54:28;8.50;99.90
12025;DHT22;6073;53.230;10.444;2023-04-15T07:56:54;8.50;99.90
12025;DHT22;6073;53.230;10.444;2023-04-15T07:59:20;8.60;99.90
12025;DHT22;6073;53.230;10.444;2023-04-15T08:01:46;8.70;99.90
12025;DHT22;6073;53.230;10.444;2023-04-15T08:04:12;8.70;99.90
12025;DHT22;6073;53.230;10.444;2023-04-15T08:06:38;8.90;99.90
12025;DHT22;6073;53.230;10.444;2023-04-15T08:09:04;9.00;99.90
12025;DHT22;6073;53.230;10.444;2023-04-15T08:11:30;9.10;99.90
12025;DHT22;6073;53.230;10.444;2023-04-15T08:13:56;9.00;99.90
12025;DHT22;6073;53.230;10.444;2023-04-15T08:16:25;9.10;99.90
12025;DHT22;6073;53.230;10.444;2023-04-15T08:18:55;9.10;99.90
12025;DHT22;6073;53.230;10.444;2023-04-15T08:21:22;9.20;99.90
12025;DHT22;6073;53.230;10.444;2023-04-15T08:23:49;9.20;99.90
12025;DHT22;6073;53.230;10.444;2023-04-15T08:26:15;9.10;99.90
12025;DHT22;6073;53.230;10.444;2023-04-15T08:28:42;9.20;99.90
12025;DHT22;6073;53.230;10.444;2023-04-15T08:31:08;9.10;99.90
12025;DHT22;6073;53.230;10.444;2023-04-15T08:33:34;9.10;99.90
12025;DHT22;6073;53.230;10.444;2023-04-15T08:36:00;9.00;99.90
12025;DHT22;6073;53.230;10.444;2023-04-15T08:38:25;9.10;99.90
12025;DHT22;6073;53.230;10.444;2023-04-15T08:40:51;9.10;99.90
12025;DHT22;6073;53.230;10.444;2023-04-15T08:43:26;9.30;99.90
12025;DHT22;6073;53.230;10.444;2023-04-15T08:45:53;9.20;99.90
12025;DHT22;6073;53.230;10.444;2023-04-15T08:48:20;9.20;99.90
12025;DHT22;6073;53.230;10.444;2023-04-15T08:50:47;9.20;99.90
12025;DHT22;6073;53.230;10.444;2023-04-15T08:53:13;9.20;99.90
12025;DHT22;6073;53.230;10.444;2023-04-15T08:55:43;9.30;99.90
12025;DHT22;6073;53.230;10.444;2023-04-15T08:58:10;9.40;99.90
12025;DHT22;6073;53.230;10.444;2023-04-15T09:00:36;9.30;99.90
12025;DHT22;6073;53.230;10.444;2023-04-15T09:03:04;9.30;99.90
12025;DHT22;6073;53.230;10.444;2023-04-15T09:05:34;9.20;99.90
12025;DHT22;6073;53.230;10.444;2023-04-15T09:08:01;9.30;99.90
12025;DHT22;6073;53.230;10.444;2023-04-15T09:10:27;9.30;99.90
12025;DHT22;6073;53.230;10.444;2023-04-15T09:12:53;9.30;99.90
12025;DHT22;6073;53.230;10.444;2023-04-15T09:15:19;9.20;99.90
12025;DHT22;6073;53.230;10.444;2023-04-15T09:17:45;9.30;99.90
12025;DHT22;6073;53.230;10.444;2023-04-15T09:20:15;9.40;99.90
12025;DHT22;6073;53.230;10.444;2023-04-15T09:22:42;9.60;99.90
12025;DHT22;6073;53.230;10.444;2023-04-15T09:27:50;9.60;99.90
12025;DHT22;6073;53.230;10.444;2023-04-15T09:30:16;9.60;99.90
12025;DHT22;6073;53.230;10.444;2023-04-15T09:32:52;9.80;99.90
12025;DHT22;6073;53.230;10.444;2023-04-15T09:35:19;9.90;99.90
12025;DHT22;6073;53.230;10.444;2023-04-15T09:37:45;9.90;99.90
12025;DHT22;6073;53.230;10.444;2023-04-15T09:40:11;9.90;99.90
12025;DHT22;6073;53.230;10.444;2023-04-15T09:42:53;10.00;99.90
12025;DHT22;6073;53.230;10.444;2023-04-15T09:45:20;10.10;99.90
12025;DHT22;6073;53.230;10.444;2023-04-15T09:47:46;10.20;99.90
12025;DHT22;6073;53.230;10.444;2023-04-15T09:50:12;10.20;99.90
12025;DHT22;6073;53.230;10.444;2023-04-15T09:52:42;10.20;99.90
12025;DHT22;6073;53.230;10.444;2023-04-15T09:55:09;10.30;99.90
12025;DHT22;6073;53.230;10.444;2023-04-15T09:57:36;10.30;99.90
12025;DHT22;6073;53.230;10.444;2023-04-15T10:00:03;10.30;99.90
12025;DHT22;6073;53.230;10.444;2023-04-15T10:02:29;10.40;99.90
12025;DHT22;6073;53.230;10.444;2023-04-15T10:04:56;10.50;99.90
12025;DHT22;6073;53.230;10.444;2023-04-15T10:07:22;10.50;99.90
12025;DHT22;6073;53.230;10.444;2023-04-15T10:09:48;10.50;99.90
12025;DHT22;6073;53.230;10.444;2023-04-15T10:12:17;10.50;99.90
12025;DHT22;6073;53.230;10.444;2023-04-15T10:14:44;10.60;99.90
12025;DHT22;6073;53.230;10.444;2023-04-15T10:17:12;10.70;99.90
12025;DHT22;6073;53.230;10.444;2023-04-15T10:19:42;10.70;99.90
12025;DHT22;6073;53.230;10.444;2023-04-15T10:22:08;10.80;99.90
12025;DHT22;6073;53.230;10.444;2023-04-15T10:24:33;10.90;99.90
12025;DHT22;6073;53.230;10.444;2023-04-15T10:26:59;10.90;99.90
12025;DHT22;6073;53.230;10.444;2023-04-15T10:29:26;11.00;99.90
12025;DHT22;6073;53.230;10.444;2023-04-15T10:31:57;11.00;99.90
12025;DHT22;6073;53.230;10.444;2023-04-15T10:34:23;11.10;99.90
12025;DHT22;6073;53.230;10.444;2023-04-15T10:36:49;11.30;99.90
12025;DHT22;6073;53.230;10.444;2023-04-15T10:42:14;11.50;99.90
12025;DHT22;6073;53.230;10.444;2023-04-15T10:44:48;11.60;99.90
12025;DHT22;6073;53.230;10.444;2023-04-15T10:47:18;11.80;99.90
12025;DHT22;6073;53.230;10.444;2023-04-15T10:49:49;11.90;99.90
12025;DHT22;6073;53.230;10.444;2023-04-15T10:52:17;12.10;99.90
12025;DHT22;6073;53.230;10.444;2023-04-15T10:54:43;12.40;99.90
12025;DHT22;6073;53.230;10.444;2023-04-15T11:02:38;13.40;99.90
12025;DHT22;6073;53.230;10.444;2023-04-15T11:05:04;13.90;99.90
12025;DHT22;6073;53.230;10.444;2023-04-15T11:12:43;14.40;99.90
12025;DHT22;6073;53.230;10.444;2023-04-15T11:15:32;14.60;99.90
12025;DHT22;6073;53.230;10.444;2023-04-15T11:18:07;14.50;99.90
12025;DHT22;6073;53.230;10.444;2023-04-15T11:20:33;14.10;99.90
12025;DHT22;6073;53.230;10.444;2023-04-15T11:22:58;14.00;99.90
12025;DHT22;6073;53.230;10.444;2023-04-15T11:25:29;13.80;99.90
12025;DHT22;6073;53.230;10.444;2023-04-15T11:27:56;13.70;99.90
12025;DHT22;6073;53.230;10.444;2023-04-15T11:30:27;13.80;99.90
12025;DHT22;6073;53.230;10.444;2023-04-15T11:32:54;13.90;99.90
12025;DHT22;6073;53.230;10.444;2023-04-15T11:35:21;14.10;99.90
12025;DHT22;6073;53.230;10.444;2023-04-15T11:37:48;14.10;99.90
12025;DHT22;6073;53.230;10.444;2023-04-15T11:40:15;14.30;99.90
12025;DHT22;6073;53.230;10.444;2023-04-15T11:42:43;14.20;99.90
12025;DHT22;6073;53.230;10.444;2023-04-15T11:45:13;14.10;99.90
12025;DHT22;6073;53.230;10.444;2023-04-15T11:47:40;14.40;99.90
12025;DHT22;6073;53.230;10.444;2023-04-15T11:50:20;14.30;99.90
12025;DHT22;6073;53.230;10.444;2023-04-15T11:55:22;14.30;99.90
12025;DHT22;6073;53.230;10.444;2023-04-15T11:57:49;14.00;99.90
12025;DHT22;6073;53.230;10.444;2023-04-15T12:00:15;13.70;99.90
12025;DHT22;6073;53.230;10.444;2023-04-15T12:02:42;13.80;99.90
12025;DHT22;6073;53.230;10.444;2023-04-15T12:05:08;13.90;99.90
12025;DHT22;6073;53.230;10.444;2023-04-15T12:07:56;14.10;99.90
12025;DHT22;6073;53.230;10.444;2023-04-15T12:10:25;14.30;99.90
12025;DHT22;6073;53.230;10.444;2023-04-15T12:12:54;14.10;99.90
12025;DHT22;6073;53.230;10.444;2023-04-15T12:15:21;14.10;99.90
12025;DHT22;6073;53.230;10.444;2023-04-15T12:17:48;13.80;99.90
12025;DHT22;6073;53.230;10.444;2023-04-15T12:20:20;13.80;99.90
12025;DHT22;6073;53.230;10.444;2023-04-15T12:22:46;13.70;99.90
12025;DHT22;6073;53.230;10.444;2023-04-15T12:25:12;13.80;99.90
12025;DHT22;6073;53.230;10.444;2023-04-15T12:27:37;13.90;99.90
12025;DHT22;6073;53.230;10.444;2023-04-15T12:30:04;13.90;99.90
12025;DHT22;6073;53.230;10.444;2023-04-15T12:32:34;14.00;99.90
12025;DHT22;6073;53.230;10.444;2023-04-15T12:34:59;14.30;99.90
12025;DHT22;6073;53.230;10.444;2023-04-15T12:37:25;14.40;99.90
12025;DHT22;6073;53.230;10.444;2023-04-15T12:39:51;14.60;99.90
12025;DHT22;6073;53.230;10.444;2023-04-15T12:42:18;14.30;99.90
12025;DHT22;6073;53.230;10.444;2023-04-15T12:44:45;14.10;99.90
12025;DHT22;6073;53.230;10.444;2023-04-15T12:47:11;14.00;99.90
12025;DHT22;6073;53.230;10.444;2023-04-15T12:49:37;13.90;99.90
12025;DHT22;6073;53.230;10.444;2023-04-15T12:52:03;13.90;99.90
12025;DHT22;6073;53.230;10.444;2023-04-15T12:54:30;14.00;99.90
12025;DHT22;6073;53.230;10.444;2023-04-15T12:56:56;14.10;99.90
12025;DHT22;6073;53.230;10.444;2023-04-15T12:59:22;14.10;99.90
12025;DHT22;6073;53.230;10.444;2023-04-15T13:01:49;13.90;99.90
12025;DHT22;6073;53.230;10.444;2023-04-15T13:04:16;13.80;99.90
12025;DHT22;6073;53.230;10.444;2023-04-15T13:06:42;13.80;99.90
12025;DHT22;6073;53.230;10.444;2023-04-15T13:09:07;14.00;99.90
12025;DHT22;6073;53.230;10.444;2023-04-15T13:11:33;14.30;99.90
12025;DHT22;6073;53.230;10.444;2023-04-15T13:14:01;14.50;99.90
12025;DHT22;6073;53.230;10.444;2023-04-15T13:16:27;14.40;99.90
12025;DHT22;6073;53.230;10.444;2023-04-15T13:18:52;14.00;99.90
12025;DHT22;6073;53.230;10.444;2023-04-15T13:21:18;13.70;99.90
12025;DHT22;6073;53.230;10.444;2023-04-15T13:23:44;13.60;99.90
12025;DHT22;6073;53.230;10.444;2023-04-15T13:26:10;13.50;99.90
12025;DHT22;6073;53.230;10.444;2023-04-15T13:28:35;13.50;99.90
12025;DHT22;6073;53.230;10.444;2023-04-15T13:31:01;13.60;99.90
12025;DHT22;6073;53.230;10.444;2023-04-15T13:33:27;13.60;99.90
12025;DHT22;6073;53.230;10.444;2023-04-15T13:35:53;13.60;99.90
12025;DHT22;6073;53.230;10.444;2023-04-15T13:38:18;13.50;99.90
12025;DHT22;6073;53.230;10.444;2023-04-15T13:40:44;13.40;99.90
12025;DHT22;6073;53.230;10.444;2023-04-15T13:43:09;13.30;99.90
12025;DHT22;6073;53.230;10.444;2023-04-15T13:45:36;13.30;99.90
12025;DHT22;6073;53.230;10.444;2023-04-15T13:48:01;13.30;99.90
12025;DHT22;6073;53.230;10.444;2023-04-15T13:50:27;13.30;99.90
12025;DHT22;6073;53.230;10.444;2023-04-15T13:52:53;13.30;99.90
12025;DHT22;6073;53.230;10.444;2023-04-15T13:55:19;13.30;99.90
12025;DHT22;6073;53.230;10.444;2023-04-15T13:57:44;13.30;99.90
12025;DHT22;6073;53.230;10.444;2023-04-15T14:00:10;13.30;99.90
12025;DHT22;6073;53.230;10.444;2023-04-15T14:02:36;13.30;99.90
12025;DHT22;6073;53.230;10.444;2023-04-15T14:05:02;13.30;99.90
12025;DHT22;6073;53.230;10.444;2023-04-15T14:07:31;13.30;99.90
12025;DHT22;6073;53.230;10.444;2023-04-15T14:09:56;13.30;99.90
12025;DHT22;6073;53.230;10.444;2023-04-15T14:12:22;13.30;99.90
12025;DHT22;6073;53.230;10.444;2023-04-15T14:14:47;13.30;99.90
12025;DHT22;6073;53.230;10.444;2023-04-15T14:17:13;13.30;99.90
12025;DHT22;6073;53.230;10.444;2023-04-15T14:19:39;13.40;99.90
12025;DHT22;6073;53.230;10.444;2023-04-15T14:22:04;13.50;99.90
12025;DHT22;6073;53.230;10.444;2023-04-15T14:24:30;13.50;99.90
12025;DHT22;6073;53.230;10.444;2023-04-15T14:26:57;13.60;99.90
12025;DHT22;6073;53.230;10.444;2023-04-15T14:29:22;13.70;99.90
12025;DHT22;6073;53.230;10.444;2023-04-15T14:31:48;13.80;99.90
12025;DHT22;6073;53.230;10.444;2023-04-15T14:34:15;13.90;99.90
12025;DHT22;6073;53.230;10.444;2023-04-15T14:36:41;13.90;99.90
12025;DHT22;6073;53.230;10.444;2023-04-15T14:39:06;13.90;99.90
12025;DHT22;6073;53.230;10.444;2023-04-15T14:44:00;13.90;99.90
12025;DHT22;6073;53.230;10.444;2023-04-15T14:46:26;14.00;99.90
12025;DHT22;6073;53.230;10.444;2023-04-15T14:48:52;13.90;99.90
12025;DHT22;6073;53.230;10.444;2023-04-15T14:51:18;13.70;99.90
12025;DHT22;6073;53.230;10.444;2023-04-15T14:53:44;13.70;99.90
12025;DHT22;6073;53.230;10.444;2023-04-15T14:56:10;13.70;99.90
12025;DHT22;6073;53.230;10.444;2023-04-15T14:58:36;13.70;99.90
12025;DHT22;6073;53.230;10.444;2023-04-15T15:01:02;13.70;99.90
12025;DHT22;6073;53.230;10.444;2023-04-15T15:03:29;13.80;99.90
12025;DHT22;6073;53.230;10.444;2023-04-15T15:05:55;13.70;99.90
12025;DHT22;6073;53.230;10.444;2023-04-15T15:08:22;13.80;99.90
12025;DHT22;6073;53.230;10.444;2023-04-15T15:10:47;13.80;99.90
12025;DHT22;6073;53.230;10.444;2023-04-15T15:13:13;13.80;99.90
12025;DHT22;6073;53.230;10.444;2023-04-15T15:15:39;13.80;99.90
12025;DHT22;6073;53.230;10.444;2023-04-15T15:18:05;13.80;99.90
12025;DHT22;6073;53.230;10.444;2023-04-15T15:20:30;13.80;99.90
12025;DHT22;6073;53.230;10.444;2023-04-15T15:22:57;13.80;99.90
12025;DHT22;6073;53.230;10.444;2023-04-15T15:25:23;13.80;99.90
12025;DHT22;6073;53.230;10.444;2023-04-15T15:27:49;13.80;99.90
12025;DHT22;6073;53.230;10.444;2023-04-15T15:30:14;13.90;99.90
12025;DHT22;6073;53.230;10.444;2023-04-15T15:32:41;13.90;99.90
12025;DHT22;6073;53.230;10.444;2023-04-15T15:35:08;13.90;99.90
12025;DHT22;6073;53.230;10.444;2023-04-15T15:37:37;13.80;99.90
12025;DHT22;6073;53.230;10.444;2023-04-15T15:40:06;13.90;99.90
12025;DHT22;6073;53.230;10.444;2023-04-15T15:42:32;14.00;99.90
12025;DHT22;6073;53.230;10.444;2023-04-15T15:44:58;14.00;99.90
12025;DHT22;6073;53.230;10.444;2023-04-15T15:47:24;14.10;99.90
12025;DHT22;6073;53.230;10.444;2023-04-15T15:49:51;14.10;99.90
12025;DHT22;6073;53.230;10.444;2023-04-15T15:52:16;14.00;99.90
12025;DHT22;6073;53.230;10.444;2023-04-15T15:54:42;14.00;99.90